createdAt,value
2023-04-23T00:00:48.335Z,5.64
2023-04-23T00:03:34.906Z,5.68
2023-04-23T00:06:22.611Z,5.71
2023-04-23T00:09:08.733Z,5.75
2023-04-23T00:11:54.685Z,5.80
2023-04-23T00:14:40.823Z,5.84
2023-04-23T00:17:26.614Z,5.91
2023-04-23T00:20:12.141Z,5.91
2023-04-23T00:22:57.567Z,5.91
2023-04-23T00:25:42.943Z,5.90
2023-04-23T00:28:28.387Z,5.89
2023-04-23T00:31:13.768Z,5.91
2023-04-23T00:33:59.849Z,5.94
2023-04-23T00:36:45.284Z,5.97
2023-04-23T00:39:30.761Z,6.00
2023-04-23T00:42:17.285Z,6.02
2023-04-23T00:45:03.145Z,6.07
2023-04-23T00:47:49.625Z,6.06
2023-04-23T00:50:35.142Z,6.05
2023-04-23T00:53:20.612Z,6.00
2023-04-23T00:56:07.017Z,5.95
2023-04-23T00:58:52.722Z,5.91
2023-04-23T01:01:38.203Z,5.88
2023-04-23T01:04:27.755Z,5.89
2023-04-23T01:07:13.501Z,5.91
2023-04-23T01:09:59.265Z,5.93
2023-04-23T01:12:44.768Z,5.92
2023-04-23T01:15:29.978Z,5.88
2023-04-23T01:18:15.528Z,5.87
2023-04-23T01:21:01.963Z,5.83
2023-04-23T01:23:47.371Z,5.80
2023-04-23T01:26:33.596Z,5.78
2023-04-23T01:29:20.188Z,5.78
2023-04-23T01:32:07.143Z,5.74
2023-04-23T01:34:54.499Z,5.73
2023-04-23T01:37:40.547Z,5.74
2023-04-23T01:40:26.418Z,5.76
2023-04-23T01:43:12.071Z,5.74
2023-04-23T01:45:58.407Z,5.75
2023-04-23T01:48:43.889Z,5.78
2023-04-23T01:51:30.936Z,5.74
2023-04-23T01:54:16.308Z,5.72
2023-04-23T01:57:03.080Z,5.72
2023-04-23T01:59:48.211Z,5.70
2023-04-23T02:02:34.657Z,5.66
2023-04-23T02:05:21.286Z,5.65
2023-04-23T02:08:07.570Z,5.65
2023-04-23T02:10:53.373Z,5.62
2023-04-23T02:13:38.770Z,5.62
2023-04-23T02:16:24.810Z,5.59
2023-04-23T02:19:12.127Z,5.57
2023-04-23T02:21:58.330Z,5.55
2023-04-23T02:24:44.589Z,5.49
2023-04-23T02:27:30.110Z,5.48
2023-04-23T02:30:15.556Z,5.48
2023-04-23T02:33:01.493Z,5.48
2023-04-23T02:35:46.987Z,5.43
2023-04-23T02:38:32.483Z,5.40
2023-04-23T02:41:17.922Z,5.38
2023-04-23T02:44:03.201Z,5.35
2023-04-23T02:46:48.792Z,5.33
2023-04-23T02:49:34.821Z,5.33
2023-04-23T02:52:20.644Z,5.29
2023-04-23T02:55:07.328Z,5.28
2023-04-23T02:57:52.861Z,5.25
2023-04-23T03:00:39.003Z,5.26
2023-04-23T03:03:26.852Z,5.25
2023-04-23T03:06:12.610Z,5.26
2023-04-23T03:08:58.118Z,5.26
2023-04-23T03:11:44.214Z,5.27
2023-04-23T03:14:31.548Z,5.26
2023-04-23T03:17:17.956Z,5.24
2023-04-23T03:20:03.528Z,5.22
2023-04-23T03:22:49.344Z,5.19
2023-04-23T03:25:34.924Z,5.16
2023-04-23T03:28:20.455Z,5.09
2023-04-23T03:31:05.887Z,5.06
2023-04-23T03:33:51.381Z,5.04
2023-04-23T03:36:44.846Z,5.04
2023-04-23T03:39:30.307Z,5.04
2023-04-23T03:42:16.421Z,5.05
2023-04-23T03:45:02.324Z,5.07
2023-04-23T03:47:47.840Z,5.07
2023-04-23T03:50:35.873Z,5.06
2023-04-23T03:53:31.186Z,5.09
2023-04-23T03:56:36.850Z,5.11
2023-04-23T03:59:42.560Z,5.15
2023-04-23T04:02:28.290Z,5.17
2023-04-23T04:05:14.019Z,5.17
2023-04-23T04:07:59.439Z,5.20
2023-04-23T04:10:44.855Z,5.23
2023-04-23T04:13:30.281Z,5.26
2023-04-23T04:16:15.818Z,5.27
2023-04-23T04:19:01.630Z,5.29
2023-04-23T04:21:47.869Z,5.33
2023-04-23T04:24:33.093Z,5.36
2023-04-23T04:27:18.695Z,5.39
2023-04-23T04:30:05.554Z,5.43
2023-04-23T04:32:51.778Z,5.44
2023-04-23T04:35:37.260Z,5.44
2023-04-23T04:38:22.756Z,5.42
2023-04-23T04:41:08.210Z,5.39
2023-04-23T04:43:54.744Z,5.34
2023-04-23T04:46:43.093Z,5.35
2023-04-23T04:49:28.613Z,5.35
2023-04-23T04:52:13.903Z,5.37
2023-04-23T04:54:59.279Z,5.38
2023-04-23T04:57:44.680Z,5.38
2023-04-23T05:00:30.720Z,5.39
2023-04-23T05:03:16.430Z,5.43
2023-04-23T05:06:02.086Z,5.44
2023-04-23T05:08:50.163Z,5.46
2023-04-23T05:11:36.111Z,5.49
2023-04-23T05:14:21.359Z,5.48
2023-04-23T05:17:07.165Z,5.52
2023-04-23T05:19:52.467Z,5.52
2023-04-23T05:22:42.049Z,5.53
2023-04-23T05:25:27.860Z,5.51
2023-04-23T05:28:13.457Z,5.50
2023-04-23T05:30:59.200Z,5.49
2023-04-23T05:33:50.131Z,5.49
2023-04-23T05:36:36.595Z,5.50
2023-04-23T05:39:22.328Z,5.49
2023-04-23T05:42:07.542Z,5.48
2023-04-23T05:44:53.111Z,5.48
2023-04-23T05:47:38.481Z,5.49
2023-04-23T05:50:23.921Z,5.50
2023-04-23T05:53:09.555Z,5.47
2023-04-23T05:55:54.913Z,5.44
2023-04-23T05:58:40.236Z,5.41
2023-04-23T06:01:25.653Z,5.37
2023-04-23T06:04:11.196Z,5.32
2023-04-23T06:06:56.693Z,5.27
2023-04-23T06:09:42.080Z,5.25
2023-04-23T06:12:27.657Z,5.30
2023-04-23T06:15:13.290Z,5.30
2023-04-23T06:17:59.201Z,5.32
2023-04-23T06:20:45.212Z,5.31
2023-04-23T06:23:31.966Z,5.30
2023-04-23T06:26:17.789Z,5.27
2023-04-23T06:29:05.833Z,5.30
2023-04-23T06:31:57.358Z,5.31
2023-04-23T06:34:57.080Z,5.34
2023-04-23T06:37:46.254Z,5.38
2023-04-23T06:40:32.747Z,5.41
2023-04-23T06:43:18.187Z,5.44
2023-04-23T06:46:38.357Z,5.49
2023-04-23T06:49:23.679Z,5.53
2023-04-23T06:52:08.988Z,5.59
2023-04-23T06:54:54.480Z,5.65
2023-04-23T06:57:39.821Z,5.81
2023-04-23T07:00:25.624Z,6.10
2023-04-23T07:03:12.157Z,6.35
2023-04-23T07:05:58.178Z,6.61
2023-04-23T07:08:45.305Z,6.82
2023-04-23T07:11:31.917Z,6.94
2023-04-23T07:14:17.231Z,7.04
2023-04-23T07:17:02.801Z,7.20
2023-04-23T07:19:48.372Z,7.30
2023-04-23T07:22:33.994Z,7.35
2023-04-23T07:25:19.493Z,7.27
2023-04-23T07:28:05.005Z,7.06
2023-04-23T07:30:50.587Z,6.95
2023-04-23T07:33:36.364Z,6.95
2023-04-23T07:36:21.749Z,6.99
2023-04-23T07:39:07.459Z,7.06
2023-04-23T07:41:52.979Z,7.15
2023-04-23T07:44:38.434Z,7.28
2023-04-23T07:47:23.931Z,7.21
2023-04-23T07:50:10.333Z,7.12
2023-04-23T07:52:56.197Z,7.04
2023-04-23T07:55:41.969Z,7.04
2023-04-23T07:58:27.551Z,7.17
2023-04-23T08:01:12.988Z,7.27
2023-04-23T08:04:00.722Z,7.32
2023-04-23T08:06:46.778Z,7.36
2023-04-23T08:09:32.017Z,7.39
2023-04-23T08:12:18.109Z,7.35
2023-04-23T08:15:05.712Z,7.38
2023-04-23T08:17:57.348Z,7.45
2023-04-23T08:20:42.665Z,7.54
2023-04-23T08:23:28.109Z,7.64
2023-04-23T08:26:13.480Z,7.73
2023-04-23T08:29:00.741Z,7.86
2023-04-23T08:31:46.365Z,7.94
2023-04-23T08:34:32.340Z,8.00
2023-04-23T08:37:29.797Z,8.20
2023-04-23T08:40:17.108Z,8.34
2023-04-23T08:43:06.530Z,8.46
2023-04-23T08:45:54.067Z,8.61
2023-04-23T08:48:40.466Z,8.69
2023-04-23T08:51:29.790Z,8.76
2023-04-23T08:54:19.435Z,8.79
2023-04-23T08:57:05.265Z,8.83
2023-04-23T08:59:52.118Z,8.84
2023-04-23T09:02:40.641Z,8.99
2023-04-23T09:05:28.331Z,9.16
2023-04-23T09:08:13.949Z,9.39
2023-04-23T09:11:02.439Z,9.61
2023-04-23T09:13:48.032Z,9.77
2023-04-23T09:16:33.559Z,9.88
2023-04-23T09:19:19.363Z,9.78
2023-04-23T09:22:05.150Z,9.69
2023-04-23T09:24:50.749Z,9.79
2023-04-23T09:27:37.229Z,10.00
2023-04-23T09:30:25.379Z,10.23
2023-04-23T09:33:12.658Z,10.35
2023-04-23T09:35:58.253Z,10.23
2023-04-23T09:38:43.800Z,10.33
2023-04-23T09:41:31.224Z,10.35
2023-04-23T09:44:22.843Z,10.11
2023-04-23T09:47:12.341Z,10.08
2023-04-23T09:49:59.444Z,10.24
2023-04-23T09:52:45.198Z,10.41
2023-04-23T09:55:35.876Z,10.35
2023-04-23T09:58:26.046Z,10.41
2023-04-23T10:01:15.407Z,10.62
2023-04-23T10:04:01.428Z,10.69
2023-04-23T10:06:57.721Z,10.44
2023-04-23T10:09:53.079Z,10.55
2023-04-23T10:12:53.622Z,10.32
2023-04-23T10:15:40.034Z,10.43
2023-04-23T10:18:25.622Z,10.12
2023-04-23T10:21:14.898Z,10.28
2023-04-23T10:24:02.891Z,10.55
2023-04-23T10:26:49.995Z,10.95
2023-04-23T10:29:36.798Z,11.17
2023-04-23T10:32:23.606Z,11.27
2023-04-23T10:35:10.189Z,11.40
2023-04-23T10:37:56.316Z,11.30
2023-04-23T10:40:46.880Z,11.58
2023-04-23T10:43:32.384Z,11.35
2023-04-23T10:46:28.044Z,11.28
2023-04-23T10:49:16.540Z,11.22
2023-04-23T10:55:00.108Z,10.95
2023-04-23T10:58:05.944Z,10.59
2023-04-23T11:00:51.626Z,10.35
2023-04-23T11:03:43.154Z,10.41
2023-04-23T11:06:48.003Z,10.38
2023-04-23T11:09:39.253Z,10.28
2023-04-23T11:12:24.671Z,10.19
2023-04-23T11:15:12.706Z,10.27
2023-04-23T11:17:59.118Z,10.29
2023-04-23T11:20:44.533Z,10.35
2023-04-23T11:23:33.081Z,10.45
2023-04-23T11:26:18.924Z,10.48
2023-04-23T11:29:06.281Z,10.32
2023-04-23T11:34:44.549Z,10.20
2023-04-23T11:37:30.024Z,10.26
2023-04-23T11:40:20.500Z,10.23
2023-04-23T11:43:06.030Z,10.16
2023-04-23T11:45:52.021Z,10.18
2023-04-23T11:48:37.408Z,10.36
2023-04-23T11:51:26.963Z,10.59
2023-04-23T11:54:13.834Z,10.76
2023-04-23T11:57:00.092Z,10.95
2023-04-23T11:59:45.840Z,11.17
2023-04-23T12:02:31.414Z,11.38
2023-04-23T12:05:21.670Z,11.43
2023-04-23T12:08:18.732Z,11.56
2023-04-23T12:11:06.305Z,11.68
2023-04-23T12:13:51.797Z,12.03
2023-04-23T12:16:45.817Z,12.27
2023-04-23T12:19:31.620Z,12.83
2023-04-23T12:22:16.922Z,13.15
2023-04-23T12:25:08.970Z,13.09
2023-04-23T12:28:00.093Z,12.97
2023-04-23T12:30:45.557Z,12.98
2023-04-23T12:33:31.542Z,12.84
2023-04-23T12:36:16.906Z,12.41
2023-04-23T12:39:31.536Z,12.30
2023-04-23T12:42:17.348Z,12.72
2023-04-23T12:45:07.665Z,12.89
2023-04-23T12:47:53.780Z,12.86
2023-04-23T12:50:39.864Z,12.58
2023-04-23T12:53:25.140Z,12.28
2023-04-23T12:56:10.824Z,12.26
2023-04-23T12:58:56.640Z,12.77
2023-04-23T13:01:42.196Z,13.64
2023-04-23T13:04:28.826Z,14.39
2023-04-23T13:07:14.682Z,15.19
2023-04-23T13:10:00.377Z,15.68
2023-04-23T13:12:45.912Z,15.72
2023-04-23T13:15:31.519Z,15.22
2023-04-23T13:18:17.137Z,14.52
2023-04-23T13:21:02.502Z,14.07
2023-04-23T13:23:47.845Z,13.44
2023-04-23T13:26:33.704Z,12.79
2023-04-23T13:29:19.225Z,12.41
2023-04-23T13:32:04.760Z,12.15
2023-04-23T13:34:50.070Z,11.96
2023-04-23T13:37:35.562Z,11.88
2023-04-23T13:40:21.219Z,12.16
2023-04-23T13:43:06.396Z,12.84
2023-04-23T13:45:53.990Z,13.51
2023-04-23T13:48:39.459Z,13.93
2023-04-23T13:51:34.809Z,14.39
2023-04-23T13:54:20.984Z,14.71
2023-04-23T13:57:06.818Z,14.98
2023-04-23T13:59:52.228Z,15.24
2023-04-23T14:02:37.768Z,15.54
2023-04-23T14:05:23.581Z,15.73
2023-04-23T14:08:08.953Z,15.45
2023-04-23T14:10:54.472Z,15.14
2023-04-23T14:13:39.821Z,15.10
2023-04-23T14:16:25.552Z,14.91
2023-04-23T14:19:10.912Z,14.77
2023-04-23T14:21:56.354Z,14.66
2023-04-23T14:24:49.741Z,14.30
2023-04-23T14:27:41.971Z,14.17
2023-04-23T14:30:29.408Z,13.79
2023-04-23T14:33:15.043Z,13.30
2023-04-23T14:36:00.315Z,12.71
2023-04-23T14:38:45.814Z,12.06
2023-04-23T14:41:33.063Z,11.20
2023-04-23T14:44:18.577Z,10.62
2023-04-23T14:47:04.537Z,10.09
2023-04-23T14:49:50.844Z,9.65
2023-04-23T14:52:36.532Z,9.17
2023-04-23T14:55:22.754Z,8.79
2023-04-23T14:58:08.290Z,8.43
2023-04-23T15:00:54.361Z,8.14
2023-04-23T15:03:40.354Z,8.06
2023-04-23T15:06:25.768Z,8.12
2023-04-23T15:09:11.313Z,8.28
2023-04-23T15:11:56.720Z,8.60
2023-04-23T15:14:44.209Z,8.90
2023-04-23T15:17:29.830Z,9.17
2023-04-23T15:20:16.598Z,9.42
2023-04-23T15:23:01.990Z,9.58
2023-04-23T15:25:49.805Z,9.78
2023-04-23T15:28:35.859Z,9.94
2023-04-23T15:31:21.368Z,10.08
2023-04-23T15:34:09.170Z,10.23
2023-04-23T15:36:55.062Z,10.35
2023-04-23T15:39:40.642Z,10.47
2023-04-23T15:42:26.314Z,10.56
2023-04-23T15:45:12.741Z,10.79
2023-04-23T15:47:58.406Z,10.99
2023-04-23T15:50:44.183Z,11.13
2023-04-23T15:53:29.755Z,11.10
2023-04-23T15:56:15.284Z,11.08
2023-04-23T15:59:00.624Z,11.11
2023-04-23T16:01:46.228Z,11.23
2023-04-23T16:04:31.837Z,11.30
2023-04-23T16:07:17.968Z,11.37
2023-04-23T16:10:04.272Z,11.30
2023-04-23T16:12:49.561Z,11.19
2023-04-23T16:15:35.242Z,11.05
2023-04-23T16:18:21.486Z,11.01
2023-04-23T16:21:07.098Z,10.94
2023-04-23T16:23:52.368Z,10.91
2023-04-23T16:26:38.761Z,10.83
2023-04-23T16:29:24.899Z,10.72
2023-04-23T16:32:10.403Z,10.65
2023-04-23T16:34:55.872Z,10.56
2023-04-23T16:37:41.628Z,10.50
2023-04-23T16:40:27.826Z,10.45
2023-04-23T16:43:13.781Z,10.41
2023-04-23T16:45:59.071Z,10.47
2023-04-23T16:48:45.410Z,10.51
2023-04-23T16:51:30.797Z,10.57
2023-04-23T16:54:16.094Z,10.68
2023-04-23T16:57:02.197Z,10.76
2023-04-23T16:59:47.977Z,10.84
2023-04-23T17:02:34.682Z,10.85
2023-04-23T17:05:24.116Z,10.86
2023-04-23T17:08:10.112Z,10.91
2023-04-23T17:10:56.434Z,10.95
2023-04-23T17:13:43.678Z,11.02
2023-04-23T17:16:29.479Z,11.11
2023-04-23T17:19:14.821Z,11.17
2023-04-23T17:22:00.253Z,11.20
2023-04-23T17:24:46.180Z,11.21
2023-04-23T17:27:32.816Z,11.19
2023-04-23T17:30:18.089Z,11.15
2023-04-23T17:33:03.588Z,11.11
2023-04-23T17:35:53.494Z,11.10
2023-04-23T17:38:39.172Z,11.10
2023-04-23T17:41:24.929Z,11.12
2023-04-23T17:44:10.281Z,11.09
2023-04-23T17:46:56.231Z,11.03
2023-04-23T17:49:42.008Z,10.93
2023-04-23T17:52:27.644Z,10.87
2023-04-23T17:55:13.183Z,10.74
2023-04-23T17:58:01.232Z,10.66
2023-04-23T18:00:47.198Z,10.59
2023-04-23T18:03:32.990Z,10.49
2023-04-23T18:06:18.917Z,10.42
2023-04-23T18:09:04.553Z,10.34
2023-04-23T18:11:50.018Z,10.31
2023-04-23T18:14:35.859Z,10.28
2023-04-23T18:17:21.292Z,10.28
2023-04-23T18:20:09.680Z,10.30
2023-04-23T18:22:56.012Z,10.29
2023-04-23T18:25:42.126Z,10.28
2023-04-23T18:28:28.557Z,10.26
2023-04-23T18:31:13.976Z,10.24
2023-04-23T18:34:02.378Z,10.23
2023-04-23T18:36:50.143Z,10.26
2023-04-23T18:39:35.700Z,10.30
2023-04-23T18:42:21.555Z,10.34
2023-04-23T18:45:08.062Z,10.36
2023-04-23T18:48:34.124Z,10.37
2023-04-23T18:51:26.600Z,10.34
2023-04-23T18:54:17.381Z,10.30
2023-04-23T18:57:03.373Z,10.23
2023-04-23T18:59:48.813Z,10.14
2023-04-23T19:02:35.591Z,10.06
2023-04-23T19:05:21.695Z,9.99
2023-04-23T19:08:07.015Z,9.90
2023-04-23T19:10:52.258Z,9.81
2023-04-23T19:13:37.583Z,9.69
2023-04-23T19:16:23.199Z,9.59
2023-04-23T19:19:08.659Z,9.50
2023-04-23T19:21:54.210Z,9.41
2023-04-23T19:24:40.120Z,9.28
2023-04-23T19:27:25.391Z,9.18
2023-04-23T19:30:11.560Z,9.08
2023-04-23T19:32:57.373Z,9.00
2023-04-23T19:35:42.928Z,8.88
2023-04-23T19:38:28.647Z,8.75
2023-04-23T19:41:14.607Z,8.61
2023-04-23T19:44:00.358Z,8.45
2023-04-23T19:46:46.227Z,8.31
2023-04-23T19:49:31.731Z,8.16
2023-04-23T19:52:21.639Z,7.97
2023-04-23T19:55:08.038Z,7.81
2023-04-23T19:57:57.537Z,7.68
2023-04-23T20:00:44.226Z,7.65
2023-04-23T20:03:29.912Z,7.57
2023-04-23T20:06:15.590Z,7.54
2023-04-23T20:09:07.762Z,7.49
2023-04-23T20:11:53.192Z,7.41
2023-04-23T20:14:38.655Z,7.38
2023-04-23T20:17:26.582Z,7.32
2023-04-23T20:20:12.232Z,7.26
2023-04-23T20:22:57.666Z,7.26
2023-04-23T20:25:43.329Z,7.29
2023-04-23T20:28:29.205Z,7.30
2023-04-23T20:31:15.173Z,7.29
2023-04-23T20:34:01.264Z,7.26
2023-04-23T20:36:47.386Z,7.20
2023-04-23T20:39:34.415Z,7.12
2023-04-23T20:42:20.951Z,7.02
2023-04-23T20:45:08.126Z,6.88
2023-04-23T20:47:54.472Z,6.78
2023-04-23T20:50:39.842Z,6.79
2023-04-23T20:53:26.003Z,6.78
2023-04-23T20:56:11.364Z,6.81
2023-04-23T20:59:00.042Z,6.84
2023-04-23T21:01:45.725Z,6.89
2023-04-23T21:04:31.675Z,6.90
2023-04-23T21:07:17.394Z,6.89
2023-04-23T21:10:06.521Z,6.89
2023-04-23T21:12:51.832Z,6.87
2023-04-23T21:15:37.419Z,6.86
2023-04-23T21:18:23.058Z,6.86
2023-04-23T21:21:08.547Z,6.86
2023-04-23T21:23:53.949Z,6.87
2023-04-23T21:26:39.349Z,6.86
2023-04-23T21:29:26.528Z,6.86
2023-04-23T21:32:11.796Z,6.89
2023-04-23T21:34:57.104Z,6.92
2023-04-23T21:37:42.655Z,6.98
2023-04-23T21:40:28.231Z,7.05
2023-04-23T21:43:14.614Z,7.10
2023-04-23T21:46:00.068Z,7.12
2023-04-23T21:48:49.737Z,7.11
2023-04-23T21:51:37.033Z,7.10
2023-04-23T21:54:22.958Z,7.09
2023-04-23T21:57:08.250Z,7.08
2023-04-23T21:59:53.671Z,7.09
2023-04-23T22:02:40.573Z,7.11
2023-04-23T22:05:28.519Z,7.12
2023-04-23T22:08:16.520Z,7.12
2023-04-23T22:11:02.048Z,7.21
2023-04-23T22:13:47.445Z,7.23
2023-04-23T22:16:34.371Z,7.20
2023-04-23T22:19:20.164Z,7.19
2023-04-23T22:22:06.437Z,7.13
2023-04-23T22:24:52.132Z,7.09
2023-04-23T22:27:38.976Z,7.07
2023-04-23T22:30:24.335Z,7.05
2023-04-23T22:33:09.994Z,7.03
2023-04-23T22:35:55.602Z,7.01
2023-04-23T22:38:41.419Z,6.97
2023-04-23T22:41:26.652Z,6.96
2023-04-23T22:44:11.997Z,6.94
2023-04-23T22:46:57.613Z,6.93
2023-04-23T22:49:44.364Z,6.92
2023-04-23T22:52:31.552Z,6.91
2023-04-23T22:55:16.992Z,6.93
2023-04-23T22:58:02.516Z,6.91
2023-04-23T23:00:48.085Z,6.90
2023-04-23T23:03:33.585Z,6.90
2023-04-23T23:06:19.289Z,6.90
2023-04-23T23:09:05.202Z,6.95
2023-04-23T23:11:50.657Z,6.97
2023-04-23T23:14:37.921Z,6.98
2023-04-23T23:17:23.363Z,7.01
2023-04-23T23:20:09.154Z,7.03
2023-04-23T23:22:54.861Z,7.05
2023-04-23T23:25:40.239Z,7.06
2023-04-23T23:28:25.590Z,7.08
2023-04-23T23:31:11.005Z,7.14
2023-04-23T23:33:56.543Z,7.17
2023-04-23T23:36:44.114Z,7.20
2023-04-23T23:39:29.603Z,7.21
2023-04-23T23:42:15.186Z,7.25
2023-04-23T23:45:00.755Z,7.25
2023-04-23T23:47:46.471Z,7.25
2023-04-23T23:50:32.966Z,7.24
2023-04-23T23:53:18.550Z,7.20
2023-04-23T23:56:04.227Z,7.19
2023-04-23T23:58:49.834Z,7.14
